YCAS

Casino Airport

Australia
METAR YCAS 182100Z AUTO 01003KT //// // ////// 21/20 Q1014
Observed Flight Rules
Dec-18 @ 21:00 UTC (60 minutes ago)
Wind
10° at 3 knots
Temperatures Readings
Current 21°C / 70°F
Dewpoint 20°C / 68°F
Humidity 94%
Altimeter 29.94" Hg
Pressure 1014 hPa
Elevation 26
METAR YCAS 182100Z AUTO 01003KT //// // ////// 21/20 Q1014
Observed Flight Rules
Dec-18 @ 21:00 UTC
(60 minutes ago)
Wind
10° at 3 knots
Temperature Dewpoint
21°C / 70°F 20°C / 68°F
Humidity Altimeter Pressure
94% 29.94" Hg 1014 hPa